Time;durP1;ratioP1;P1;durP2;ratioP2;P2;SDS_P1;SDS_P2;PMS_P1;PMS_P2;Temp;Humidity;BMP_temperature;BMP_pressure;BME280_temperature;BME280_humidity;BME280_pressure;Samples;Min_cycle;Max_cycle;Signal;HPM_P1;HPM_P2
2022/01/11 00:00:54;;;;;;;128.80;55.22;;;;;;;;;;5066353;28;20036;-81
2022/01/11 00:03:20;;;;;;;134.75;53.63;;;;;;;;;;5048855;28;20471;-80
2022/01/11 00:05:58;;;;;;;121.30;53.97;;;;;;;;;;5049560;28;20134;-84
2022/01/11 00:08:30;;;;;;;118.55;51.38;;;;;;;;;;5069547;28;20333;-84
2022/01/11 00:11:03;;;;;;;113.78;50.53;;;;;;;;;;5051186;28;20055;-84
2022/01/11 00:13:29;;;;;;;107.88;50.28;;;;;;;;;;5052035;28;20041;-85
2022/01/11 00:15:55;;;;;;;128.20;54.08;;;;;;;;;;5083109;28;20037;-80
2022/01/11 00:18:21;;;;;;;126.63;53.38;;;;;;;;;;5048781;28;20085;-80
2022/01/11 00:20:47;;;;;;;120.78;50.90;;;;;;;;;;5065801;28;20061;-84
2022/01/11 00:25:40;;;;;;;119.25;52.03;;;;;;;;;;5065821;28;20135;-84
2022/01/11 00:28:07;;;;;;;113.07;49.45;;;;;;;;;;5048717;28;20032;-80
2022/01/11 00:30:36;;;;;;;115.50;51.80;;;;;;;;;;5047231;28;20029;-80
2022/01/11 00:33:05;;;;;;;115.32;48.83;;;;;;;;;;5064597;28;20040;-81
2022/01/11 00:35:44;;;;;;;108.07;49.63;;;;;;;;;;5064004;28;20036;-81
2022/01/11 00:38:15;;;;;;;115.80;50.30;;;;;;;;;;5050880;28;20048;-84
2022/01/11 00:40:41;;;;;;;115.18;51.10;;;;;;;;;;5050523;28;20062;-84
2022/01/11 00:43:07;;;;;;;110.95;51.00;;;;;;;;;;5065650;28;20357;-85
2022/01/11 00:45:33;;;;;;;122.78;53.45;;;;;;;;;;5049280;28;20048;-84
2022/01/11 00:47:59;;;;;;;121.90;54.58;;;;;;;;;;5048497;28;20044;-84
2022/01/11 00:50:25;;;;;;;112.95;51.97;;;;;;;;;;5066031;28;20514;-85
2022/01/11 00:52:51;;;;;;;112.25;51.58;;;;;;;;;;5047118;28;20094;-81
2022/01/11 00:55:18;;;;;;;121.35;54.08;;;;;;;;;;5063898;28;20052;-81
2022/01/11 00:57:44;;;;;;;121.57;52.38;;;;;;;;;;5064101;28;20045;-85
2022/01/11 01:00:11;;;;;;;119.15;53.47;;;;;;;;;;5052303;28;20050;-83
2022/01/11 01:02:41;;;;;;;116.00;52.13;;;;;;;;;;5060559;28;20044;-84
2022/01/11 01:05:07;;;;;;;119.47;51.65;;;;;;;;;;5072623;28;20063;-83
2022/01/11 01:07:33;;;;;;;105.75;49.55;;;;;;;;;;5063691;28;20113;-80
2022/01/11 01:10:46;;;;;;;107.63;49.75;;;;;;;;;;5063371;28;20088;-80
2022/01/11 01:12:48;;;;;;;107.97;48.95;;;;;;;;;;5070884;28;20364;-83
2022/01/11 01:15:14;;;;;;;108.65;49.03;;;;;;;;;;5064607;28;20526;-84
2022/01/11 01:17:40;;;;;;;117.75;49.65;;;;;;;;;;5047983;28;20048;-83
2022/01/11 01:20:07;;;;;;;103.03;49.05;;;;;;;;;;5047963;28;20142;-84
2022/01/11 01:22:33;;;;;;;102.97;47.13;;;;;;;;;;5064067;28;20429;-79
2022/01/11 01:24:59;;;;;;;98.90;46.40;;;;;;;;;;5047275;28;20036;-81
2022/01/11 01:27:25;;;;;;;113.97;49.55;;;;;;;;;;5064313;28;20524;-79
2022/01/11 01:29:51;;;;;;;104.57;47.35;;;;;;;;;;5046642;28;20093;-82
2022/01/11 01:32:17;;;;;;;103.85;44.72;;;;;;;;;;5064018;28;20044;-84
2022/01/11 01:34:43;;;;;;;104.85;45.38;;;;;;;;;;5063692;28;20040;-80
2022/01/11 01:37:09;;;;;;;95.30;44.15;;;;;;;;;;5064064;28;20044;-80
2022/01/11 01:39:35;;;;;;;96.80;44.53;;;;;;;;;;5081574;28;20387;-84
2022/01/11 01:42:02;;;;;;;100.55;45.45;;;;;;;;;;5063802;28;20037;-80
2022/01/11 01:44:30;;;;;;;97.68;44.90;;;;;;;;;;5063121;28;20040;-80
2022/01/11 01:46:56;;;;;;;94.10;43.97;;;;;;;;;;5045262;28;20072;-79
2022/01/11 01:49:23;;;;;;;107.38;46.55;;;;;;;;;;5080248;28;20048;-84
2022/01/11 01:51:49;;;;;;;101.22;45.40;;;;;;;;;;5057385;28;20056;-84
2022/01/11 01:54:15;;;;;;;101.90;45.22;;;;;;;;;;5064394;28;20037;-85
2022/01/11 01:56:41;;;;;;;87.43;42.22;;;;;;;;;;5047327;28;20071;-79
2022/01/11 01:59:08;;;;;;;109.63;47.42;;;;;;;;;;5047568;28;20043;-84
2022/01/11 02:01:38;;;;;;;94.68;43.47;;;;;;;;;;5048302;28;20105;-84
2022/01/11 02:04:04;;;;;;;101.97;45.85;;;;;;;;;;5048900;28;20051;-81
2022/01/11 02:06:30;;;;;;;101.97;45.42;;;;;;;;;;5063947;28;20716;-80
2022/01/11 02:08:56;;;;;;;95.72;43.55;;;;;;;;;;5073001;28;20456;-79
2022/01/11 02:11:23;;;;;;;93.25;42.72;;;;;;;;;;5065086;28;20043;-82
2022/01/11 02:13:49;;;;;;;106.25;47.60;;;;;;;;;;5064526;28;20040;-80
2022/01/11 02:16:16;;;;;;;102.00;45.92;;;;;;;;;;5098525;28;20052;-79
2022/01/11 02:18:45;;;;;;;105.70;45.70;;;;;;;;;;5058808;28;20460;-80
2022/01/11 02:21:11;;;;;;;101.00;48.53;;;;;;;;;;5046357;28;20040;-80
2022/01/11 02:23:38;;;;;;;100.65;47.10;;;;;;;;;;5047495;28;20391;-82
2022/01/11 02:26:04;;;;;;;100.22;47.90;;;;;;;;;;5065816;28;20086;-85
2022/01/11 02:28:30;;;;;;;98.97;47.13;;;;;;;;;;5049359;28;20066;-80
2022/01/11 02:31:00;;;;;;;110.95;47.65;;;;;;;;;;5065057;28;20043;-81
2022/01/11 02:33:33;;;;;;;107.05;45.70;;;;;;;;;;5068555;28;20040;-81
2022/01/11 02:36:00;;;;;;;96.80;44.25;;;;;;;;;;5056438;28;20040;-79
2022/01/11 02:38:26;;;;;;;95.40;44.47;;;;;;;;;;5078005;28;20036;-80
2022/01/11 02:40:52;;;;;;;106.53;45.97;;;;;;;;;;5080419;28;20036;-80
2022/01/11 02:43:18;;;;;;;101.43;46.65;;;;;;;;;;5061254;28;20451;-82
2022/01/11 02:45:44;;;;;;;89.25;43.90;;;;;;;;;;5088297;28;20043;-81
2022/01/11 02:48:10;;;;;;;108.95;44.67;;;;;;;;;;5068709;28;20047;-84
2022/01/11 02:50:36;;;;;;;94.40;44.85;;;;;;;;;;5078395;28;20056;-84
2022/01/11 02:53:02;;;;;;;101.25;44.80;;;;;;;;;;5072028;28;20041;-81
2022/01/11 02:55:28;;;;;;;102.40;45.90;;;;;;;;;;5047903;28;20120;-85
2022/01/11 02:57:55;;;;;;;101.80;45.53;;;;;;;;;;5070613;28;20115;-79
2022/01/11 03:00:21;;;;;;;95.97;43.20;;;;;;;;;;5075762;28;20166;-81
2022/01/11 03:02:47;;;;;;;104.18;45.45;;;;;;;;;;5057853;28;20130;-80
2022/01/11 03:05:13;;;;;;;98.82;44.03;;;;;;;;;;5059053;28;20045;-80
2022/01/11 03:07:40;;;;;;;93.22;44.50;;;;;;;;;;5060070;28;20047;-84
2022/01/11 03:10:32;;;;;;;91.55;43.25;;;;;;;;;;5076045;28;20053;-84
2022/01/11 03:12:59;;;;;;;96.70;44.95;;;;;;;;;;5052834;28;20041;-78
2022/01/11 03:15:25;;;;;;;89.25;43.53;;;;;;;;;;5061566;28;20029;-82
2022/01/11 03:17:51;;;;;;;85.43;40.90;;;;;;;;;;5043632;28;20041;-78
2022/01/11 03:20:17;;;;;;;84.03;41.65;;;;;;;;;;5054791;28;20074;-81
2022/01/11 03:22:43;;;;;;;91.15;42.55;;;;;;;;;;5055431;28;20096;-80
2022/01/11 03:25:10;;;;;;;90.70;42.40;;;;;;;;;;5046563;28;20068;-79
2022/01/11 03:27:36;;;;;;;82.82;41.33;;;;;;;;;;5029325;28;20083;-80
2022/01/11 03:30:02;;;;;;;94.75;45.40;;;;;;;;;;5028740;28;20033;-79
2022/01/11 03:32:28;;;;;;;104.28;47.08;;;;;;;;;;5028892;28;20044;-84
2022/01/11 03:34:54;;;;;;;98.05;44.33;;;;;;;;;;5048772;28;20041;-83
2022/01/11 03:37:20;;;;;;;91.50;42.78;;;;;;;;;;5036449;28;20049;-80
2022/01/11 03:39:47;;;;;;;88.60;42.15;;;;;;;;;;5034110;28;20128;-79
2022/01/11 03:42:13;;;;;;;86.63;41.60;;;;;;;;;;5054820;28;20045;-80
2022/01/11 03:44:39;;;;;;;84.95;39.78;;;;;;;;;;5047379;28;20102;-84
2022/01/11 03:47:05;;;;;;;77.30;38.67;;;;;;;;;;5030583;28;20043;-79
2022/01/11 03:49:31;;;;;;;82.32;38.95;;;;;;;;;;5030360;28;20048;-81
2022/01/11 03:51:57;;;;;;;78.55;39.28;;;;;;;;;;5031971;28;20045;-84
2022/01/11 03:54:26;;;;;;;74.25;38.35;;;;;;;;;;5050148;28;20048;-80
2022/01/11 03:56:52;;;;;;;83.10;38.83;;;;;;;;;;5052326;28;20048;-81
2022/01/11 03:59:19;;;;;;;70.95;37.30;;;;;;;;;;5061849;28;20033;-80
2022/01/11 04:01:45;;;;;;;75.97;37.42;;;;;;;;;;5046388;28;20032;-80
2022/01/11 04:04:11;;;;;;;75.43;37.17;;;;;;;;;;5039636;28;20043;-81
2022/01/11 04:06:37;;;;;;;85.32;37.60;;;;;;;;;;5051708;28;20045;-79
2022/01/11 04:09:04;;;;;;;76.40;36.25;;;;;;;;;;5049038;28;20041;-80
2022/01/11 04:11:30;;;;;;;78.68;35.55;;;;;;;;;;5044423;28;20098;-83
2022/01/11 04:13:56;;;;;;;76.22;36.22;;;;;;;;;;5032681;28;20120;-80
2022/01/11 04:16:22;;;;;;;74.40;35.30;;;;;;;;;;5034974;28;20041;-80
2022/01/11 04:18:48;;;;;;;71.20;35.97;;;;;;;;;;5057404;28;20111;-79
2022/01/11 04:21:14;;;;;;;72.45;33.38;;;;;;;;;;5042285;28;20096;-79
2022/01/11 04:23:40;;;;;;;71.43;34.83;;;;;;;;;;5041435;28;20048;-83
2022/01/11 04:26:06;;;;;;;70.68;34.08;;;;;;;;;;5053993;28;20112;-83
2022/01/11 04:28:32;;;;;;;76.25;34.85;;;;;;;;;;5047592;28;20048;-84
2022/01/11 04:31:00;;;;;;;65.28;33.53;;;;;;;;;;5046414;28;20032;-79
2022/01/11 04:33:29;;;;;;;74.82;34.97;;;;;;;;;;5027695;28;20040;-81
2022/01/11 04:35:55;;;;;;;63.75;33.03;;;;;;;;;;5029108;28;20123;-83
2022/01/11 04:38:22;;;;;;;76.78;36.88;;;;;;;;;;5048270;28;20041;-84
2022/01/11 04:40:48;;;;;;;83.80;36.72;;;;;;;;;;5030427;28;20124;-84
2022/01/11 04:43:14;;;;;;;75.70;37.75;;;;;;;;;;5027646;28;20033;-85
2022/01/11 04:45:40;;;;;;;74.40;35.00;;;;;;;;;;5031049;28;20040;-85
2022/01/11 04:48:06;;;;;;;72.95;35.85;;;;;;;;;;5029155;28;20037;-84
2022/01/11 04:50:32;;;;;;;86.93;38.40;;;;;;;;;;5027534;28;20045;-80
2022/01/11 04:52:59;;;;;;;84.18;40.20;;;;;;;;;;5046744;28;20091;-85
2022/01/11 04:55:24;;;;;;;86.13;39.00;;;;;;;;;;5032511;28;20182;-79
2022/01/11 04:57:50;;;;;;;71.40;36.22;;;;;;;;;;5074746;28;20045;-79
2022/01/11 05:00:17;;;;;;;83.68;38.63;;;;;;;;;;5031361;28;20037;-80
2022/01/11 05:02:43;;;;;;;74.93;35.33;;;;;;;;;;5026643;28;20052;-80
2022/01/11 05:05:09;;;;;;;76.97;36.95;;;;;;;;;;5026875;28;20041;-84
2022/01/11 05:07:35;;;;;;;81.05;37.88;;;;;;;;;;5045743;28;20041;-84
2022/01/11 05:10:01;;;;;;;76.43;35.40;;;;;;;;;;5043685;28;20094;-78
2022/01/11 05:12:27;;;;;;;80.85;36.75;;;;;;;;;;5042237;28;20392;-78
2022/01/11 05:14:53;;;;;;;83.22;38.30;;;;;;;;;;5041308;28;20172;-79
2022/01/11 05:17:19;;;;;;;76.38;36.55;;;;;;;;;;5033941;28;20052;-82
2022/01/11 05:19:45;;;;;;;89.47;37.30;;;;;;;;;;5037016;28;20044;-78
2022/01/11 05:22:11;;;;;;;90.82;42.50;;;;;;;;;;5061531;28;20044;-79
2022/01/11 05:24:37;;;;;;;88.28;42.28;;;;;;;;;;5061954;28;20052;-79
2022/01/11 05:27:03;;;;;;;89.88;42.15;;;;;;;;;;5042133;28;20054;-83
2022/01/11 05:29:31;;;;;;;87.28;41.42;;;;;;;;;;5044210;28;20044;-80
2022/01/11 05:31:58;;;;;;;94.53;42.65;;;;;;;;;;5028212;28;20124;-81
2022/01/11 05:34:24;;;;;;;90.45;41.45;;;;;;;;;;5025969;28;20376;-84
2022/01/11 05:36:50;;;;;;;82.55;39.40;;;;;;;;;;5026699;28;20041;-82
2022/01/11 05:39:17;;;;;;;96.10;41.72;;;;;;;;;;5044177;28;20041;-81
2022/01/11 05:41:43;;;;;;;90.50;40.45;;;;;;;;;;5064925;28;20045;-78
2022/01/11 05:44:09;;;;;;;94.80;42.35;;;;;;;;;;5059718;28;20068;-78
2022/01/11 05:46:35;;;;;;;91.18;41.13;;;;;;;;;;5067346;28;20044;-79
2022/01/11 05:49:01;;;;;;;91.10;42.22;;;;;;;;;;5041892;28;20044;-79
2022/01/11 05:51:27;;;;;;;98.28;41.53;;;;;;;;;;5042974;28;20080;-79
2022/01/11 05:53:54;;;;;;;92.88;41.88;;;;;;;;;;5025560;28;20036;-82
2022/01/11 05:56:20;;;;;;;109.85;50.33;;;;;;;;;;5025153;28;20571;-84
2022/01/11 05:58:46;;;;;;;109.28;51.78;;;;;;;;;;5026049;28;20048;-84
2022/01/11 06:01:12;;;;;;;107.35;50.15;;;;;;;;;;5030597;28;20060;-83
2022/01/11 06:03:39;;;;;;;96.50;45.58;;;;;;;;;;5053395;28;20074;-81
2022/01/11 06:06:05;;;;;;;94.90;44.00;;;;;;;;;;5043191;28;20088;-83
2022/01/11 06:08:31;;;;;;;83.78;40.60;;;;;;;;;;5027690;28;20091;-83
2022/01/11 06:10:58;;;;;;;84.65;39.42;;;;;;;;;;5044680;28;20112;-83
2022/01/11 06:13:24;;;;;;;87.85;40.78;;;;;;;;;;5047228;28;20102;-81
2022/01/11 06:15:51;;;;;;;83.28;37.88;;;;;;;;;;5026623;28;20049;-79
2022/01/11 06:18:17;;;;;;;78.95;38.33;;;;;;;;;;5044902;28;20389;-80
2022/01/11 06:20:43;;;;;;;87.25;38.08;;;;;;;;;;5027941;28;20056;-82
2022/01/11 06:23:09;;;;;;;86.28;40.97;;;;;;;;;;5043801;28;20052;-82
2022/01/11 06:25:35;;;;;;;80.82;37.78;;;;;;;;;;5045837;28;20037;-79
2022/01/11 06:28:01;;;;;;;83.03;40.30;;;;;;;;;;5073642;28;20068;-79
2022/01/11 06:30:27;;;;;;;91.65;41.25;;;;;;;;;;5059602;28;20055;-78
2022/01/11 06:32:55;;;;;;;103.95;49.40;;;;;;;;;;5040245;28;20037;-80
2022/01/11 06:35:22;;;;;;;107.93;51.83;;;;;;;;;;5039292;28;20029;-83
2022/01/11 06:37:48;;;;;;;102.03;45.33;;;;;;;;;;5055947;28;20044;-81
2022/01/11 06:40:14;;;;;;;88.07;42.85;;;;;;;;;;5056051;28;20044;-80
2022/01/11 06:42:40;;;;;;;96.78;41.85;;;;;;;;;;5039429;28;20044;-81
2022/01/11 06:45:07;;;;;;;91.65;41.42;;;;;;;;;;5039908;28;20115;-84
2022/01/11 06:47:32;;;;;;;79.00;39.75;;;;;;;;;;5056383;28;20051;-81
2022/01/11 06:49:58;;;;;;;90.35;44.90;;;;;;;;;;5041283;28;20049;-83
2022/01/11 06:52:25;;;;;;;93.40;46.40;;;;;;;;;;5039576;28;20047;-83
2022/01/11 06:54:51;;;;;;;93.65;41.10;;;;;;;;;;5073404;28;20043;-84
2022/01/11 06:57:17;;;;;;;98.85;43.78;;;;;;;;;;5038546;28;20072;-82
2022/01/11 06:59:43;;;;;;;90.13;41.15;;;;;;;;;;5057008;28;20149;-85
2022/01/11 07:02:09;;;;;;;77.18;37.50;;;;;;;;;;5057771;28;20075;-81
2022/01/11 07:04:37;;;;;;;92.00;40.28;;;;;;;;;;5042904;28;20037;-85
2022/01/11 07:07:03;;;;;;;80.30;37.97;;;;;;;;;;5059553;28;20048;-81
2022/01/11 07:09:29;;;;;;;82.18;39.60;;;;;;;;;;5043281;28;20036;-79
2022/01/11 07:11:55;;;;;;;97.35;45.47;;;;;;;;;;5058972;28;20041;-80
2022/01/11 07:14:21;;;;;;;95.13;46.42;;;;;;;;;;5038477;28;20040;-82
2022/01/11 07:16:48;;;;;;;95.82;46.53;;;;;;;;;;5080207;28;20037;-81
2022/01/11 07:19:18;;;;;;;97.70;45.25;;;;;;;;;;5051497;28;20074;-82
2022/01/11 07:21:46;;;;;;;94.53;45.40;;;;;;;;;;5053648;28;20033;-82
2022/01/11 07:24:13;;;;;;;86.60;40.10;;;;;;;;;;5035132;28;20357;-81
2022/01/11 07:26:39;;;;;;;78.65;36.72;;;;;;;;;;5050658;28;20047;-81
2022/01/11 07:29:05;;;;;;;71.10;34.40;;;;;;;;;;5034281;28;20086;-81
2022/01/11 07:31:32;;;;;;;70.70;33.10;;;;;;;;;;5034482;28;20041;-80
2022/01/11 07:33:58;;;;;;;65.68;31.20;;;;;;;;;;5053554;28;20060;-78
2022/01/11 07:36:24;;;;;;;76.00;35.20;;;;;;;;;;5037354;28;20033;-84
2022/01/11 07:38:51;;;;;;;75.68;34.47;;;;;;;;;;5032697;28;20052;-84
2022/01/11 07:41:17;;;;;;;71.05;35.22;;;;;;;;;;5032913;28;20080;-82
2022/01/11 07:43:43;;;;;;;76.10;33.42;;;;;;;;;;5033375;28;20087;-81
2022/01/11 07:46:09;;;;;;;68.82;33.33;;;;;;;;;;5047849;28;20037;-80
2022/01/11 07:48:35;;;;;;;76.10;34.22;;;;;;;;;;5030734;28;20037;-82
2022/01/11 07:51:01;;;;;;;66.18;33.88;;;;;;;;;;5029408;28;20060;-80
2022/01/11 07:53:27;;;;;;;64.70;30.30;;;;;;;;;;5030687;28;20045;-82
2022/01/11 07:55:53;;;;;;;66.10;33.38;;;;;;;;;;5029826;28;20064;-82
2022/01/11 07:58:20;;;;;;;67.60;34.95;;;;;;;;;;5030892;28;20048;-79
2022/01/11 08:00:46;;;;;;;82.72;37.97;;;;;;;;;;5030813;28;20055;-82
2022/01/11 08:03:12;;;;;;;80.95;37.30;;;;;;;;;;5072062;28;20049;-80
2022/01/11 08:05:38;;;;;;;69.53;33.47;;;;;;;;;;5050903;28;20032;-78
2022/01/11 08:08:04;;;;;;;74.50;35.17;;;;;;;;;;5038324;28;20051;-80
2022/01/11 08:10:30;;;;;;;65.30;34.90;;;;;;;;;;5038860;28;20123;-79
2022/01/11 08:12:56;;;;;;;81.85;36.83;;;;;;;;;;5038267;28;20045;-81
2022/01/11 08:15:22;;;;;;;81.07;39.05;;;;;;;;;;5038524;28;20148;-79
2022/01/11 08:17:49;;;;;;;84.38;40.28;;;;;;;;;;5038327;28;20089;-80
2022/01/11 08:20:15;;;;;;;79.50;38.53;;;;;;;;;;5031823;28;20033;-80
2022/01/11 08:22:41;;;;;;;84.28;37.25;;;;;;;;;;5031045;28;20068;-80
2022/01/11 08:25:07;;;;;;;72.07;34.67;;;;;;;;;;5030860;28;20045;-80
2022/01/11 08:27:33;;;;;;;73.57;34.55;;;;;;;;;;5031085;28;20041;-80
2022/01/11 08:30:00;;;;;;;75.82;34.45;;;;;;;;;;5049287;28;20075;-79
2022/01/11 08:32:26;;;;;;;66.70;32.97;;;;;;;;;;5053849;28;20072;-80
2022/01/11 08:34:52;;;;;;;77.00;34.35;;;;;;;;;;5054363;28;20056;-79
2022/01/11 08:37:18;;;;;;;73.28;33.75;;;;;;;;;;5040278;28;20037;-78
2022/01/11 08:39:44;;;;;;;65.38;32.38;;;;;;;;;;5041998;28;20128;-79
2022/01/11 08:42:13;;;;;;;69.70;32.05;;;;;;;;;;5061508;28;20053;-80
2022/01/11 08:44:40;;;;;;;70.60;33.42;;;;;;;;;;5044443;28;20033;-79
2022/01/11 08:47:06;;;;;;;64.72;31.88;;;;;;;;;;5055181;28;20047;-79
2022/01/11 08:49:32;;;;;;;65.10;31.90;;;;;;;;;;5041914;28;20041;-80
2022/01/11 08:51:58;;;;;;;60.55;31.08;;;;;;;;;;5061826;28;20148;-79
2022/01/11 08:54:24;;;;;;;58.60;29.80;;;;;;;;;;5046062;28;20044;-81
2022/01/11 08:56:53;;;;;;;61.53;31.23;;;;;;;;;;5062032;28;20059;-80
2022/01/11 08:59:19;;;;;;;57.85;28.25;;;;;;;;;;5046716;28;20025;-81
2022/01/11 09:01:45;;;;;;;60.47;28.70;;;;;;;;;;5034945;28;20468;-80
2022/01/11 09:04:11;;;;;;;51.70;27.23;;;;;;;;;;5044536;28;20044;-83
2022/01/11 09:06:37;;;;;;;50.95;25.92;;;;;;;;;;5027162;28;20123;-83
2022/01/11 09:09:04;;;;;;;58.00;28.52;;;;;;;;;;5047929;28;20087;-85
2022/01/11 09:11:30;;;;;;;56.72;28.95;;;;;;;;;;5032530;28;20051;-82
2022/01/11 09:13:56;;;;;;;59.95;29.55;;;;;;;;;;5048531;28;20139;-82
2022/01/11 09:16:24;;;;;;;59.65;27.75;;;;;;;;;;5030608;28;20123;-83
2022/01/11 09:18:50;;;;;;;55.70;27.50;;;;;;;;;;5053667;28;20037;-85
2022/01/11 09:21:20;;;;;;;62.47;28.92;;;;;;;;;;5030339;28;20068;-81
2022/01/11 09:23:46;;;;;;;53.05;27.80;;;;;;;;;;5029383;28;20048;-81
2022/01/11 09:26:12;;;;;;;48.28;25.95;;;;;;;;;;5031230;28;20037;-84
2022/01/11 09:28:38;;;;;;;58.58;26.90;;;;;;;;;;5031180;28;20051;-82
2022/01/11 09:31:04;;;;;;;52.13;26.23;;;;;;;;;;5049319;28;20048;-84
2022/01/11 09:33:30;;;;;;;54.47;26.92;;;;;;;;;;5032331;28;20045;-85
2022/01/11 09:35:56;;;;;;;53.25;27.73;;;;;;;;;;5031538;28;20086;-81
2022/01/11 09:38:23;;;;;;;52.95;27.08;;;;;;;;;;5046579;28;20084;-82
2022/01/11 09:40:50;;;;;;;55.08;27.73;;;;;;;;;;5044931;28;20064;-81
2022/01/11 09:43:16;;;;;;;50.60;27.33;;;;;;;;;;5047478;28;20051;-83
2022/01/11 09:45:44;;;;;;;58.30;27.20;;;;;;;;;;5029972;28;20092;-84
2022/01/11 09:48:10;;;;;;;49.10;26.05;;;;;;;;;;5031303;28;20045;-82
2022/01/11 09:50:37;;;;;;;58.13;27.10;;;;;;;;;;5045266;28;20048;-84
2022/01/11 09:53:03;;;;;;;52.05;26.92;;;;;;;;;;5045482;28;20041;-82
2022/01/11 09:55:29;;;;;;;52.83;27.45;;;;;;;;;;5030321;28;20076;-84
2022/01/11 09:57:55;;;;;;;59.67;31.20;;;;;;;;;;5031148;28;20067;-85
2022/01/11 10:00:21;;;;;;;61.65;30.80;;;;;;;;;;5051001;28;20420;-83
2022/01/11 10:02:47;;;;;;;70.32;34.38;;;;;;;;;;5050915;28;20044;-83
2022/01/11 10:05:14;;;;;;;75.25;36.80;;;;;;;;;;5040359;28;20029;-83
2022/01/11 10:07:41;;;;;;;68.43;37.35;;;;;;;;;;5036895;28;20125;-81
2022/01/11 10:10:14;;;;;;;63.03;36.08;;;;;;;;;;5030243;28;20061;-83
2022/01/11 10:12:41;;;;;;;67.30;36.53;;;;;;;;;;5031536;28;20220;-84
2022/01/11 10:15:07;;;;;;;65.60;36.03;;;;;;;;;;5032183;28;20052;-79
2022/01/11 10:17:38;;;;;;;65.78;35.30;;;;;;;;;;5048735;28;20045;-83
2022/01/11 10:20:14;;;;;;;61.65;34.75;;;;;;;;;;5033942;28;20151;-84
2022/01/11 10:22:49;;;;;;;58.65;33.28;;;;;;;;;;5050148;28;20044;-81
2022/01/11 10:25:15;;;;;;;61.63;33.17;;;;;;;;;;5068588;28;20047;-82
2022/01/11 10:27:41;;;;;;;57.38;30.98;;;;;;;;;;5052549;28;20045;-82
2022/01/11 10:30:12;;;;;;;59.28;32.80;;;;;;;;;;5036989;28;20071;-80
2022/01/11 10:32:42;;;;;;;59.20;31.30;;;;;;;;;;5036742;28;20120;-81
2022/01/11 10:35:11;;;;;;;60.35;31.42;;;;;;;;;;5047962;28;20037;-79
2022/01/11 10:37:41;;;;;;;55.88;30.35;;;;;;;;;;5048571;28;20051;-81
2022/01/11 10:40:13;;;;;;;62.13;32.63;;;;;;;;;;5048749;28;20033;-81
2022/01/11 10:42:48;;;;;;;66.63;31.67;;;;;;;;;;5050514;28;20334;-82
2022/01/11 10:45:19;;;;;;;62.97;31.50;;;;;;;;;;5033863;28;20068;-83
2022/01/11 10:47:47;;;;;;;56.65;30.90;;;;;;;;;;5033504;28;20041;-85
2022/01/11 10:50:13;;;;;;;60.42;30.00;;;;;;;;;;5033608;28;20064;-81
2022/01/11 10:52:39;;;;;;;55.25;29.85;;;;;;;;;;5051983;28;20045;-83
2022/01/11 10:55:06;;;;;;;56.75;28.60;;;;;;;;;;5053105;28;20059;-80
2022/01/11 10:57:32;;;;;;;54.63;28.73;;;;;;;;;;5038927;28;20080;-80
2022/01/11 11:00:06;;;;;;;60.88;29.40;;;;;;;;;;5031422;28;20135;-81
2022/01/11 11:02:32;;;;;;;57.67;28.73;;;;;;;;;;5028527;28;20033;-79
2022/01/11 11:05:00;;;;;;;50.58;28.98;;;;;;;;;;5040884;28;20100;-77
2022/01/11 11:07:27;;;;;;;53.22;29.25;;;;;;;;;;5049398;28;20096;-83
2022/01/11 11:09:53;;;;;;;55.63;28.98;;;;;;;;;;5028633;28;20052;-81
2022/01/11 11:12:20;;;;;;;58.78;29.63;;;;;;;;;;5044235;28;20033;-80
2022/01/11 11:14:53;;;;;;;59.20;31.77;;;;;;;;;;5028296;28;20123;-81
2022/01/11 11:17:26;;;;;;;53.08;30.25;;;;;;;;;;5027200;28;20159;-81
2022/01/11 11:19:56;;;;;;;59.50;29.60;;;;;;;;;;5031153;28;20036;-82
2022/01/11 11:22:24;;;;;;;60.47;30.45;;;;;;;;;;5031919;28;20049;-78
2022/01/11 11:24:50;;;;;;;54.22;30.25;;;;;;;;;;5049181;28;20041;-78
2022/01/11 11:27:16;;;;;;;58.13;30.35;;;;;;;;;;5065544;28;20065;-80
2022/01/11 11:29:42;;;;;;;58.38;29.50;;;;;;;;;;5031230;28;20102;-83
2022/01/11 11:32:08;;;;;;;61.08;30.20;;;;;;;;;;5047895;28;20045;-80
2022/01/11 11:34:34;;;;;;;55.67;29.33;;;;;;;;;;5032317;28;20440;-79
2022/01/11 11:37:03;;;;;;;50.92;28.48;;;;;;;;;;5033383;28;20045;-80
2022/01/11 11:39:29;;;;;;;54.20;29.75;;;;;;;;;;5050214;28;20052;-81
2022/01/11 11:41:55;;;;;;;54.45;29.48;;;;;;;;;;5033955;28;20346;-81
2022/01/11 11:44:24;;;;;;;63.55;30.60;;;;;;;;;;5048991;28;20041;-80
2022/01/11 11:46:56;;;;;;;49.58;27.55;;;;;;;;;;5033698;28;20112;-80
2022/01/11 11:49:43;;;;;;;50.95;26.13;;;;;;;;;;5050099;28;20369;-83
2022/01/11 11:52:19;;;;;;;54.42;24.95;;;;;;;;;;5060563;28;20055;-77
2022/01/11 11:54:55;;;;;;;50.70;25.38;;;;;;;;;;5035617;28;20041;-81
2022/01/11 11:57:22;;;;;;;51.20;25.42;;;;;;;;;;5033246;28;20052;-81
2022/01/11 11:59:58;;;;;;;46.38;24.55;;;;;;;;;;5031952;28;20048;-80
2022/01/11 12:02:34;;;;;;;44.40;23.40;;;;;;;;;;5030826;28;20048;-80
2022/01/11 12:05:00;;;;;;;44.50;20.73;;;;;;;;;;5030706;28;20067;-80
2022/01/11 12:07:32;;;;;;;40.85;20.90;;;;;;;;;;5030618;28;20040;-80
2022/01/11 12:09:58;;;;;;;36.05;19.45;;;;;;;;;;5032281;28;20037;-82
2022/01/11 12:12:49;;;;;;;26.58;14.65;;;;;;;;;;5029940;28;20045;-84
2022/01/11 12:15:21;;;;;;;23.83;11.75;;;;;;;;;;5049422;28;20064;-83
2022/01/11 12:17:47;;;;;;;21.80;10.07;;;;;;;;;;5049603;28;20416;-80
2022/01/11 12:20:13;;;;;;;18.38;7.32;;;;;;;;;;5033966;28;20045;-79
2022/01/11 12:22:48;;;;;;;13.85;5.80;;;;;;;;;;5037474;28;20388;-83
2022/01/11 12:25:30;;;;;;;14.80;6.35;;;;;;;;;;5044971;28;20102;-81
2022/01/11 12:28:00;;;;;;;14.07;6.30;;;;;;;;;;5028170;28;20037;-80
2022/01/11 12:30:26;;;;;;;13.95;6.53;;;;;;;;;;5026072;28;20041;-81
2022/01/11 12:33:11;;;;;;;14.23;5.50;;;;;;;;;;5061171;28;20033;-80
2022/01/11 12:35:53;;;;;;;17.65;6.00;;;;;;;;;;5064354;28;20067;-82
2022/01/11 12:38:19;;;;;;;15.73;5.95;;;;;;;;;;5044390;28;20017;-82
2022/01/11 12:40:45;;;;;;;13.60;6.10;;;;;;;;;;5028231;28;20035;-82
2022/01/11 12:43:37;;;;;;;14.30;6.28;;;;;;;;;;5045765;28;20064;-83
2022/01/11 12:46:07;;;;;;;15.43;6.80;;;;;;;;;;5076435;28;20037;-79
2022/01/11 12:48:47;;;;;;;19.25;7.40;;;;;;;;;;5052843;28;20445;-80
2022/01/11 12:51:33;;;;;;;17.17;7.70;;;;;;;;;;5044787;28;20065;-83
2022/01/11 12:54:18;;;;;;;17.40;6.50;;;;;;;;;;5044889;28;20037;-82
2022/01/11 12:56:46;;;;;;;14.32;6.47;;;;;;;;;;5046682;28;20041;-81
2022/01/11 12:59:12;;;;;;;18.02;6.63;;;;;;;;;;5047505;28;20029;-81
2022/01/11 13:01:38;;;;;;;17.35;7.00;;;;;;;;;;5035279;28;20040;-79
2022/01/11 13:04:04;;;;;;;16.90;6.82;;;;;;;;;;5036738;28;20037;-80
2022/01/11 13:06:30;;;;;;;16.23;6.00;;;;;;;;;;5029816;28;20037;-82
2022/01/11 13:08:57;;;;;;;13.25;6.30;;;;;;;;;;5046713;28;20448;-79
2022/01/11 13:11:24;;;;;;;16.27;5.80;;;;;;;;;;5029055;28;20045;-78
2022/01/11 13:13:55;;;;;;;14.55;6.13;;;;;;;;;;5047364;28;20047;-79
2022/01/11 13:16:27;;;;;;;11.57;5.38;;;;;;;;;;5027667;28;20068;-80
2022/01/11 13:18:53;;;;;;;10.40;4.95;;;;;;;;;;5030085;28;20044;-80
2022/01/11 13:21:22;;;;;;;10.88;4.95;;;;;;;;;;5046194;28;20445;-79
2022/01/11 13:24:35;;;;;;;13.68;5.25;;;;;;;;;;5031116;28;20037;-79
2022/01/11 13:26:38;;;;;;;14.93;5.53;;;;;;;;;;5057117;28;20037;-80
2022/01/11 13:29:05;;;;;;;12.73;5.05;;;;;;;;;;5029807;28;20475;-79
2022/01/11 13:31:36;;;;;;;11.80;4.88;;;;;;;;;;5029984;28;20052;-79
2022/01/11 13:34:05;;;;;;;9.68;5.03;;;;;;;;;;5045712;28;20033;-77
2022/01/11 13:36:33;;;;;;;13.45;4.68;;;;;;;;;;5045453;28;20049;-79
2022/01/11 13:39:03;;;;;;;12.20;4.28;;;;;;;;;;5028697;28;20063;-80
2022/01/11 13:41:33;;;;;;;10.95;4.60;;;;;;;;;;5030359;28;20124;-80
2022/01/11 13:44:00;;;;;;;13.77;5.07;;;;;;;;;;5044670;28;20071;-81
2022/01/11 13:46:27;;;;;;;11.95;5.13;;;;;;;;;;5027667;28;20071;-80
2022/01/11 13:48:56;;;;;;;10.57;4.45;;;;;;;;;;5043786;28;20449;-81
2022/01/11 13:51:29;;;;;;;8.82;4.10;;;;;;;;;;5044572;28;20056;-80
2022/01/11 13:53:59;;;;;;;11.07;4.10;;;;;;;;;;5044394;28;20047;-80
2022/01/11 13:56:26;;;;;;;9.27;4.10;;;;;;;;;;5028277;28;20051;-81
2022/01/11 13:58:53;;;;;;;8.68;3.60;;;;;;;;;;5027187;28;20044;-79
2022/01/11 14:01:19;;;;;;;11.18;3.95;;;;;;;;;;5027753;28;20115;-80
2022/01/11 14:03:45;;;;;;;13.95;3.90;;;;;;;;;;5028557;28;20095;-81
2022/01/11 14:06:22;;;;;;;9.05;3.55;;;;;;;;;;5044907;28;20463;-79
2022/01/11 14:08:52;;;;;;;9.65;3.47;;;;;;;;;;5046903;28;20037;-79
2022/01/11 14:11:34;;;;;;;7.85;3.15;;;;;;;;;;5034520;28;20103;-80
2022/01/11 14:14:00;;;;;;;6.88;3.40;;;;;;;;;;5037322;28;20048;-79
2022/01/11 14:16:26;;;;;;;6.50;3.15;;;;;;;;;;5034742;28;20041;-81
2022/01/11 14:19:02;;;;;;;6.93;3.03;;;;;;;;;;5034287;28;20037;-79
2022/01/11 14:21:28;;;;;;;10.15;3.10;;;;;;;;;;5053507;28;20043;-79